createdAt,value
2018-01-08T00:02:02.827Z,7.00
2018-01-08T00:04:30.391Z,7.00
2018-01-08T00:06:57.883Z,6.90
2018-01-08T00:09:26.142Z,7.00
2018-01-08T00:11:54.415Z,6.90
2018-01-08T00:14:21.931Z,6.90
2018-01-08T00:16:49.422Z,6.90
2018-01-08T00:19:16.934Z,6.90
2018-01-08T00:21:44.470Z,6.90
2018-01-08T00:24:12.735Z,6.90
2018-01-08T00:26:40.994Z,6.90
2018-01-08T00:29:08.504Z,6.90
2018-01-08T00:31:35.998Z,6.90
2018-01-08T00:34:03.495Z,6.90
2018-01-08T00:36:31.770Z,6.90
2018-01-08T00:39:00.048Z,6.90
2018-01-08T00:41:27.551Z,6.80
2018-01-08T00:43:55.043Z,6.90
2018-01-08T00:46:22.583Z,6.90
2018-01-08T00:48:50.092Z,6.90
2018-01-08T00:51:17.603Z,6.90
2018-01-08T00:53:45.099Z,6.90
2018-01-08T00:56:13.376Z,6.90
2018-01-08T00:58:41.651Z,6.90
2018-01-08T01:01:09.915Z,6.90
2018-01-08T01:03:38.228Z,6.90
2018-01-08T01:06:05.721Z,6.90
2018-01-08T01:08:33.218Z,6.90
2018-01-08T01:11:01.495Z,6.90
2018-01-08T01:13:29.772Z,6.90
2018-01-08T01:15:58.035Z,6.90
2018-01-08T01:18:26.316Z,6.90
2018-01-08T01:20:54.625Z,6.90
2018-01-08T01:23:22.122Z,6.80
2018-01-08T01:25:49.643Z,6.90
2018-01-08T01:28:17.137Z,6.80
2018-01-08T01:30:44.631Z,6.90
2018-01-08T01:33:12.894Z,6.90
2018-01-08T01:35:41.163Z,6.90
2018-01-08T01:38:08.655Z,6.90
2018-01-08T01:40:36.171Z,6.90
2018-01-08T01:43:04.438Z,6.90
2018-01-08T01:45:31.950Z,6.90
2018-01-08T01:47:59.463Z,6.90
2018-01-08T01:50:26.966Z,6.90
2018-01-08T01:52:54.477Z,6.90
2018-01-08T01:55:23.478Z,6.90
2018-01-08T01:57:52.699Z,7.00
2018-01-08T02:00:20.979Z,6.90
2018-01-08T02:02:49.259Z,6.90
2018-01-08T02:05:16.831Z,6.90
2018-01-08T02:07:44.295Z,7.00
2018-01-08T02:10:11.795Z,7.00
2018-01-08T02:12:39.302Z,7.00
2018-01-08T02:15:06.800Z,7.00
2018-01-08T02:17:34.294Z,7.00
2018-01-08T02:20:02.560Z,7.00
2018-01-08T02:22:30.074Z,7.00
2018-01-08T02:24:57.589Z,7.00
2018-01-08T02:27:25.854Z,7.00
2018-01-08T02:29:53.370Z,7.00
2018-01-08T02:32:20.887Z,7.00
2018-01-08T02:34:49.154Z,7.00
2018-01-08T02:37:17.415Z,7.00
2018-01-08T02:39:44.910Z,7.00
2018-01-08T02:42:12.410Z,6.90
2018-01-08T02:44:39.906Z,6.90
2018-01-08T02:47:08.175Z,6.90
2018-01-08T02:49:35.691Z,7.00
2018-01-08T02:52:03.194Z,7.00
2018-01-08T02:54:31.482Z,7.00
2018-01-08T02:56:59.746Z,7.00
2018-01-08T02:59:28.032Z,7.00
2018-01-08T03:01:56.379Z,7.00
2018-01-08T03:04:24.081Z,7.00
2018-01-08T03:06:52.354Z,7.00
2018-01-08T03:09:20.611Z,7.00
2018-01-08T03:11:48.114Z,7.00
2018-01-08T03:14:15.619Z,7.00
2018-01-08T03:16:43.116Z,7.00
2018-01-08T03:19:10.627Z,7.00
2018-01-08T03:21:38.135Z,7.00
2018-01-08T03:24:05.655Z,7.00
2018-01-08T03:26:33.152Z,7.00
2018-01-08T03:29:00.652Z,7.00
2018-01-08T03:31:28.191Z,7.00
2018-01-08T03:33:55.718Z,7.00
2018-01-08T03:36:23.984Z,7.00
2018-01-08T03:38:52.263Z,7.00
2018-01-08T03:41:20.530Z,7.00
2018-01-08T03:43:48.796Z,7.00
2018-01-08T03:46:16.303Z,7.00
2018-01-08T03:48:43.810Z,7.00
2018-01-08T03:51:11.320Z,7.00
2018-01-08T03:53:38.950Z,7.10
2018-01-08T03:56:07.218Z,7.10
2018-01-08T03:58:35.483Z,7.10
2018-01-08T04:01:02.995Z,7.10
2018-01-08T04:03:30.495Z,7.10
2018-01-08T04:05:58.004Z,7.10
2018-01-08T04:08:25.503Z,7.10
2018-01-08T04:10:53.204Z,7.10
2018-01-08T04:13:21.649Z,7.10
2018-01-08T04:15:49.150Z,7.10
2018-01-08T04:18:16.656Z,7.10
2018-01-08T04:20:44.172Z,7.10
2018-01-08T04:23:11.726Z,7.10
2018-01-08T04:25:39.226Z,7.10
2018-01-08T04:28:06.726Z,7.00
2018-01-08T04:30:35.002Z,7.00
2018-01-08T04:33:03.271Z,7.00
2018-01-08T04:35:31.546Z,7.00
2018-01-08T04:37:59.051Z,7.00
2018-01-08T04:40:26.570Z,7.00
2018-01-08T04:42:55.060Z,7.00
2018-01-08T04:45:23.322Z,7.00
2018-01-08T04:47:50.811Z,7.00
2018-01-08T04:50:18.307Z,7.00
2018-01-08T04:52:45.807Z,6.90
2018-01-08T04:55:14.071Z,7.00
2018-01-08T04:57:41.567Z,7.00
2018-01-08T05:00:09.114Z,6.90
2018-01-08T05:02:36.617Z,6.90
2018-01-08T05:05:04.223Z,6.80
2018-01-08T05:07:32.501Z,6.90
2018-01-08T05:10:00.762Z,6.90
2018-01-08T05:12:29.026Z,6.90
2018-01-08T05:14:56.539Z,6.80
2018-01-08T05:17:24.045Z,6.90
2018-01-08T05:19:51.538Z,6.80
2018-01-08T05:22:19.043Z,6.80
2018-01-08T05:24:46.560Z,6.80
2018-01-08T05:27:14.203Z,6.80
2018-01-08T05:29:42.587Z,6.80
2018-01-08T05:32:10.099Z,6.80
2018-01-08T05:34:37.610Z,6.80
2018-01-08T05:37:05.111Z,6.80
2018-01-08T05:39:32.611Z,6.90
2018-01-08T05:42:00.883Z,6.90
2018-01-08T05:44:29.151Z,6.90
2018-01-08T05:46:56.671Z,6.90
2018-01-08T05:49:24.183Z,6.90
2018-01-08T05:51:52.445Z,6.90
2018-01-08T05:54:20.715Z,6.90
2018-01-08T05:56:48.221Z,6.90
2018-01-08T05:59:15.742Z,6.90
2018-01-08T06:01:44.011Z,6.90
2018-01-08T06:04:11.513Z,6.90
2018-01-08T06:06:39.015Z,6.80
2018-01-08T06:09:06.559Z,6.80
2018-01-08T06:11:34.163Z,6.80
2018-01-08T06:14:02.431Z,6.80
2018-01-08T06:16:30.712Z,6.80
2018-01-08T06:18:58.994Z,6.70
2018-01-08T06:21:27.254Z,6.70
2018-01-08T06:23:55.527Z,6.70
2018-01-08T06:26:23.786Z,6.70
2018-01-08T06:28:51.290Z,6.70
2018-01-08T06:31:18.939Z,6.70
2018-01-08T06:33:47.207Z,6.70
2018-01-08T06:36:15.491Z,6.70
2018-01-08T06:38:43.764Z,6.70
2018-01-08T06:41:12.142Z,6.70
2018-01-08T06:43:40.398Z,6.70
2018-01-08T06:46:09.423Z,6.70
2018-01-08T06:48:37.679Z,6.60
2018-01-08T06:51:05.198Z,6.60
2018-01-08T06:53:32.706Z,6.60
2018-01-08T06:56:01.196Z,6.50
2018-01-08T06:58:29.451Z,6.50
2018-01-08T07:00:57.740Z,6.60
2018-01-08T07:03:26.119Z,6.50
2018-01-08T07:05:54.385Z,6.50
2018-01-08T07:08:22.655Z,6.60
2018-01-08T07:10:52.514Z,6.60
2018-01-08T07:13:20.150Z,6.60
2018-01-08T07:15:48.420Z,6.60
2018-01-08T07:18:16.724Z,6.60
2018-01-08T07:20:44.219Z,6.60
2018-01-08T07:23:11.766Z,6.60
2018-01-08T07:25:39.267Z,6.60
2018-01-08T07:28:07.551Z,6.60
2018-01-08T07:30:35.814Z,6.60
2018-01-08T07:33:03.363Z,6.60
2018-01-08T07:35:30.863Z,6.70
2018-01-08T07:37:58.371Z,6.70
2018-01-08T07:40:25.875Z,6.70
2018-01-08T07:42:53.386Z,6.70
2018-01-08T07:45:20.903Z,6.70
2018-01-08T07:47:48.403Z,6.70
2018-01-08T07:50:16.087Z,6.70
2018-01-08T07:52:43.587Z,6.70
2018-01-08T07:55:11.082Z,6.70
2018-01-08T07:57:38.585Z,6.70
2018-01-08T08:00:06.236Z,6.70
2018-01-08T08:02:34.503Z,6.70
2018-01-08T08:05:02.772Z,6.70
2018-01-08T08:07:31.271Z,6.70
2018-01-08T08:09:59.551Z,6.70
2018-01-08T08:12:27.835Z,6.70
2018-01-08T08:14:55.334Z,6.60
2018-01-08T08:17:22.842Z,6.60
2018-01-08T08:19:52.662Z,6.70
2018-01-08T08:22:20.921Z,6.70
2018-01-08T08:24:49.204Z,6.60
2018-01-08T08:27:17.510Z,6.60
2018-01-08T08:29:45.022Z,6.60
2018-01-08T08:32:12.529Z,6.60
2018-01-08T08:34:40.037Z,6.60
2018-01-08T08:37:07.531Z,6.60
2018-01-08T08:39:35.045Z,6.60
2018-01-08T08:42:02.574Z,6.60
2018-01-08T08:44:30.067Z,6.60
2018-01-08T08:46:57.590Z,6.60
2018-01-08T08:49:25.123Z,6.60
2018-01-08T08:51:52.619Z,6.60
2018-01-08T08:54:20.113Z,6.60
2018-01-08T08:56:48.387Z,6.70
2018-01-08T08:59:15.884Z,6.60
2018-01-08T09:01:43.382Z,6.60
2018-01-08T09:04:10.879Z,6.60
2018-01-08T09:06:39.143Z,6.60
2018-01-08T09:09:07.412Z,6.60
2018-01-08T09:11:34.910Z,6.60
2018-01-08T09:14:02.428Z,6.60
2018-01-08T09:16:29.938Z,6.60
2018-01-08T09:18:57.451Z,6.60
2018-01-08T09:21:25.719Z,6.70
2018-01-08T09:23:53.223Z,6.60
2018-01-08T09:26:20.768Z,6.70
2018-01-08T09:28:48.267Z,6.60
2018-01-08T09:31:15.779Z,6.60
2018-01-08T09:33:44.058Z,6.70
2018-01-08T09:36:11.875Z,6.70
2018-01-08T09:38:39.371Z,6.70
2018-01-08T09:41:07.655Z,6.70
2018-01-08T09:43:35.935Z,6.70
2018-01-08T09:46:03.435Z,6.70
2018-01-08T09:48:30.941Z,6.70
2018-01-08T09:50:59.269Z,6.70
2018-01-08T09:53:26.739Z,6.70
2018-01-08T09:55:54.235Z,6.70
2018-01-08T09:58:22.500Z,6.70
2018-01-08T10:00:50.766Z,6.70
2018-01-08T10:03:31.043Z,6.60
2018-01-08T10:06:11.503Z,6.60
2018-01-08T10:08:51.506Z,6.60
2018-01-08T10:11:31.037Z,6.60
2018-01-08T10:14:10.389Z,6.60
2018-01-08T10:16:49.951Z,6.70
2018-01-08T10:19:29.606Z,6.70
2018-01-08T10:21:57.883Z,6.70
2018-01-08T10:24:26.152Z,6.70
2018-01-08T10:26:54.430Z,6.80
2018-01-08T10:29:22.695Z,6.80
2018-01-08T10:31:50.971Z,6.80
2018-01-08T10:34:18.476Z,6.80
2018-01-08T10:36:45.975Z,6.90
2018-01-08T10:39:13.475Z,6.90
2018-01-08T10:41:47.355Z,6.90
2018-01-08T10:44:20.658Z,6.90
2018-01-08T10:46:55.383Z,6.90
2018-01-08T10:49:28.639Z,6.90
2018-01-08T10:51:55.665Z,6.90
2018-01-08T10:54:34.850Z,6.90
2018-01-08T10:57:02.367Z,6.90
2018-01-08T10:59:29.862Z,6.90
2018-01-08T11:02:03.188Z,6.90
2018-01-08T11:04:31.524Z,6.90
2018-01-08T11:06:59.019Z,6.90
2018-01-08T11:09:27.287Z,6.90
2018-01-08T11:11:55.550Z,6.90
2018-01-08T11:14:23.051Z,6.90
2018-01-08T11:16:50.586Z,6.90
2018-01-08T11:19:18.854Z,6.90
2018-01-08T11:21:47.119Z,6.90
2018-01-08T11:24:14.620Z,6.90
2018-01-08T11:26:42.136Z,7.00
2018-01-08T11:29:09.648Z,7.00
2018-01-08T11:31:37.159Z,7.00
2018-01-08T11:34:04.665Z,7.00
2018-01-08T11:36:32.174Z,6.90
2018-01-08T11:38:59.687Z,6.90
2018-01-08T11:41:27.415Z,6.90
2018-01-08T11:43:55.674Z,6.90
2018-01-08T11:46:23.175Z,6.80
2018-01-08T11:48:50.692Z,6.80
2018-01-08T11:51:18.195Z,6.80
2018-01-08T11:53:45.698Z,6.80
2018-01-08T11:56:13.190Z,6.90
2018-01-08T11:58:40.839Z,6.90
2018-01-08T12:01:11.655Z,6.80
2018-01-08T12:03:40.082Z,6.80
2018-01-08T12:06:07.588Z,6.80
2018-01-08T12:08:35.108Z,6.70
2018-01-08T12:11:02.608Z,6.70
2018-01-08T12:13:30.107Z,6.70
2018-01-08T12:15:57.610Z,6.70
2018-01-08T12:18:25.132Z,6.70
2018-01-08T12:20:52.626Z,6.70
2018-01-08T12:23:20.127Z,6.70
2018-01-08T12:25:48.599Z,6.70
2018-01-08T12:28:16.879Z,6.70
2018-01-08T12:30:45.147Z,6.80
2018-01-08T12:33:13.459Z,6.80
2018-01-08T12:35:40.963Z,6.80
2018-01-08T12:38:08.507Z,6.80
2018-01-08T12:40:36.214Z,6.80
2018-01-08T12:43:04.483Z,6.80
2018-01-08T12:45:32.739Z,6.80
2018-01-08T12:48:00.329Z,6.80
2018-01-08T12:50:27.811Z,6.80
2018-01-08T12:52:55.316Z,6.80
2018-01-08T12:55:22.845Z,6.80
2018-01-08T12:57:50.346Z,6.80
2018-01-08T13:00:18.631Z,6.70
2018-01-08T13:02:46.911Z,6.70
2018-01-08T13:05:14.443Z,6.70
2018-01-08T13:07:41.944Z,6.80
2018-01-08T13:10:09.451Z,6.80
2018-01-08T13:12:37.028Z,6.80
2018-01-08T13:15:05.307Z,6.90
2018-01-08T13:17:32.822Z,6.90
2018-01-08T13:20:00.377Z,6.90
2018-01-08T13:22:27.883Z,6.90
2018-01-08T13:24:55.391Z,6.90
2018-01-08T13:27:22.931Z,6.80
2018-01-08T13:29:51.177Z,6.80
2018-01-08T13:32:19.574Z,6.70
2018-01-08T13:34:47.856Z,6.70
2018-01-08T13:37:15.355Z,6.70
2018-01-08T13:39:43.075Z,6.70
2018-01-08T13:42:11.354Z,6.70
2018-01-08T13:44:38.887Z,6.70
2018-01-08T13:47:06.389Z,6.70
2018-01-08T13:49:33.899Z,6.70
2018-01-08T13:52:01.392Z,6.60
2018-01-08T13:54:28.927Z,6.60
2018-01-08T13:56:57.195Z,6.60
2018-01-08T13:59:24.700Z,6.60
2018-01-08T14:01:52.199Z,6.60
2018-01-08T14:04:19.724Z,6.60
2018-01-08T14:06:47.259Z,6.60
2018-01-08T14:09:14.790Z,6.60
2018-01-08T14:11:42.580Z,6.50
2018-01-08T14:14:10.347Z,6.60
2018-01-08T14:16:37.892Z,6.50
2018-01-08T14:19:06.159Z,6.40
2018-01-08T14:21:34.432Z,6.40
2018-01-08T14:24:02.715Z,6.40
2018-01-08T14:26:31.041Z,6.40
2018-01-08T14:28:58.591Z,6.40
2018-01-08T14:31:26.090Z,6.40
2018-01-08T14:33:53.596Z,6.40
2018-01-08T14:36:21.107Z,6.30
2018-01-08T14:38:48.604Z,6.30
2018-01-08T14:41:16.102Z,6.30
2018-01-08T14:43:43.603Z,6.30
2018-01-08T14:46:11.872Z,6.30
2018-01-08T14:48:40.146Z,6.20
2018-01-08T14:51:07.648Z,6.30
2018-01-08T14:53:36.152Z,6.20
2018-01-08T14:56:03.655Z,6.20
2018-01-08T14:58:31.926Z,6.20
2018-01-08T15:01:00.203Z,6.20
2018-01-08T15:03:28.503Z,6.10
2018-01-08T15:05:56.012Z,6.10
2018-01-08T15:08:23.508Z,6.10
2018-01-08T15:10:52.614Z,6.10
2018-01-08T15:13:20.113Z,6.10
2018-01-08T15:15:47.631Z,6.10
2018-01-08T15:18:15.142Z,6.10
2018-01-08T15:20:42.646Z,6.10
2018-01-08T15:23:10.164Z,6.10
2018-01-08T15:25:37.663Z,6.10
2018-01-08T15:28:05.203Z,6.10
2018-01-08T15:30:33.467Z,6.10
2018-01-08T15:33:00.975Z,6.10
2018-01-08T15:35:28.513Z,6.10
2018-01-08T15:37:56.007Z,6.10
2018-01-08T15:40:23.502Z,6.10
2018-01-08T15:42:51.019Z,6.10
2018-01-08T15:45:18.518Z,6.10
2018-01-08T15:47:46.016Z,6.00
2018-01-08T15:50:13.651Z,6.10
2018-01-08T15:52:41.955Z,6.20
2018-01-08T15:55:10.407Z,6.10
2018-01-08T15:57:38.679Z,6.10
2018-01-08T16:00:06.948Z,6.10
2018-01-08T16:02:35.236Z,6.20
2018-01-08T16:05:03.503Z,6.10
2018-01-08T16:07:31.779Z,6.10
2018-01-08T16:10:00.073Z,6.20
2018-01-08T16:12:28.344Z,6.20
2018-01-08T16:14:56.611Z,6.10
2018-01-08T16:17:24.871Z,6.10
2018-01-08T16:19:53.878Z,6.10
2018-01-08T16:22:22.234Z,6.10
2018-01-08T16:24:49.735Z,6.10
2018-01-08T16:27:17.247Z,6.10
2018-01-08T16:29:44.753Z,6.10
2018-01-08T16:32:12.292Z,6.10
2018-01-08T16:34:40.783Z,6.00
2018-01-08T16:37:09.056Z,6.00
2018-01-08T16:39:37.323Z,6.00
2018-01-08T16:42:04.819Z,6.00
2018-01-08T16:44:32.866Z,5.90
2018-01-08T16:47:01.132Z,5.90
2018-01-08T16:49:29.432Z,5.90
2018-01-08T16:51:56.954Z,5.80
2018-01-08T16:54:25.270Z,5.90
2018-01-08T16:56:52.768Z,5.80
2018-01-08T16:59:21.327Z,5.90
2018-01-08T17:01:48.831Z,5.90
2018-01-08T17:04:16.332Z,5.90
2018-01-08T17:06:43.868Z,5.90
2018-01-08T17:09:12.148Z,5.90
2018-01-08T17:11:40.427Z,5.80
2018-01-08T17:14:08.692Z,5.80
2018-01-08T17:16:37.146Z,5.80
2018-01-08T17:19:04.691Z,5.80
2018-01-08T17:21:32.192Z,5.80
2018-01-08T17:24:00.533Z,5.80
2018-01-08T17:26:28.242Z,5.80
2018-01-08T17:28:56.512Z,5.80
2018-01-08T17:31:24.998Z,5.70
2018-01-08T17:33:53.308Z,5.70
2018-01-08T17:36:20.830Z,5.70
2018-01-08T17:38:49.094Z,5.70
2018-01-08T17:41:17.380Z,5.70
2018-01-08T17:43:45.642Z,5.70
2018-01-08T17:46:13.144Z,5.70
2018-01-08T17:48:40.652Z,5.70
2018-01-08T17:51:08.157Z,5.70
2018-01-08T17:53:35.676Z,5.70
2018-01-08T17:56:03.187Z,5.70
2018-01-08T17:58:30.704Z,5.70
2018-01-08T18:00:58.979Z,5.70
2018-01-08T18:03:27.335Z,5.70
2018-01-08T18:05:54.827Z,5.70
2018-01-08T18:08:23.090Z,5.70
2018-01-08T18:10:51.355Z,5.70
2018-01-08T18:13:18.854Z,5.70
2018-01-08T18:15:46.355Z,5.70
2018-01-08T18:18:13.873Z,5.70
2018-01-08T18:20:41.383Z,5.70
2018-01-08T18:23:08.880Z,5.70
2018-01-08T18:25:36.379Z,5.70
2018-01-08T18:28:03.922Z,5.70
2018-01-08T18:30:31.423Z,5.70
2018-01-08T18:32:58.939Z,5.70
2018-01-08T18:35:26.441Z,5.70
2018-01-08T18:37:53.947Z,5.70
2018-01-08T18:40:21.578Z,5.70
2018-01-08T18:42:49.966Z,5.80
2018-01-08T18:45:17.463Z,5.70
2018-01-08T18:47:44.956Z,5.70
2018-01-08T18:50:13.219Z,5.70
2018-01-08T18:52:42.238Z,5.70
2018-01-08T18:55:10.559Z,5.70
2018-01-08T18:57:38.059Z,5.70
2018-01-08T19:00:05.558Z,5.70
2018-01-08T19:02:33.068Z,5.70
2018-01-08T19:05:00.562Z,5.70
2018-01-08T19:07:28.204Z,5.80
2018-01-08T19:09:56.471Z,5.80
2018-01-08T19:12:24.766Z,5.80
2018-01-08T19:14:53.069Z,5.80
2018-01-08T19:17:20.611Z,5.80
2018-01-08T19:19:48.127Z,5.80
2018-01-08T19:22:15.822Z,5.80
2018-01-08T19:24:44.113Z,5.80
2018-01-08T19:27:11.631Z,5.80
2018-01-08T19:29:39.159Z,5.80
2018-01-08T19:32:06.655Z,5.90
2018-01-08T19:34:34.171Z,5.90
2018-01-08T19:37:01.684Z,5.90
2018-01-08T19:39:29.952Z,5.90
2018-01-08T19:41:58.237Z,5.90
2018-01-08T19:44:26.503Z,5.90
2018-01-08T19:46:54.787Z,5.90
2018-01-08T19:49:23.080Z,5.90
2018-01-08T19:51:51.347Z,5.90
2018-01-08T19:54:19.634Z,5.90
2018-01-08T19:56:47.197Z,5.90
2018-01-08T19:59:14.699Z,5.90
2018-01-08T20:01:42.200Z,5.90
2018-01-08T20:04:10.689Z,5.90
2018-01-08T20:06:38.215Z,5.90
2018-01-08T20:09:05.716Z,5.90
2018-01-08T20:11:33.215Z,5.90
2018-01-08T20:14:00.720Z,5.90
2018-01-08T20:16:29.014Z,5.90
2018-01-08T20:18:56.528Z,5.90
2018-01-08T20:21:24.054Z,5.90
2018-01-08T20:23:51.594Z,5.90
2018-01-08T20:26:19.111Z,5.90
2018-01-08T20:28:46.633Z,5.90
2018-01-08T20:31:14.144Z,6.00
2018-01-08T20:33:42.672Z,6.00
2018-01-08T20:36:10.182Z,6.00
2018-01-08T20:38:38.487Z,6.00
2018-01-08T20:41:06.009Z,6.00
2018-01-08T20:43:34.299Z,6.10
2018-01-08T20:46:02.579Z,6.10
2018-01-08T20:48:30.079Z,6.10
2018-01-08T20:50:57.591Z,6.10
2018-01-08T20:53:25.901Z,6.10
2018-01-08T20:55:53.403Z,6.10
2018-01-08T20:58:21.706Z,6.10
2018-01-08T21:00:50.001Z,6.20
2018-01-08T21:03:17.500Z,6.10
2018-01-08T21:05:45.022Z,6.20
2018-01-08T21:08:12.540Z,6.20
2018-01-08T21:10:40.039Z,6.20
2018-01-08T21:13:07.548Z,6.30
2018-01-08T21:15:35.053Z,6.30
2018-01-08T21:18:02.691Z,6.30
2018-01-08T21:20:30.997Z,6.40
2018-01-08T21:22:58.501Z,6.40
2018-01-08T21:25:26.005Z,6.40
2018-01-08T21:27:53.503Z,6.40
2018-01-08T21:30:21.018Z,6.40
2018-01-08T21:32:48.527Z,6.40
2018-01-08T21:35:16.048Z,6.40
2018-01-08T21:37:43.547Z,6.40
2018-01-08T21:40:11.162Z,6.40
2018-01-08T21:42:38.682Z,6.40
2018-01-08T21:45:06.958Z,6.50
2018-01-08T21:47:35.231Z,6.60
2018-01-08T21:50:02.732Z,6.50
2018-01-08T21:52:30.243Z,6.60
2018-01-08T21:54:57.745Z,6.60
2018-01-08T21:57:25.255Z,6.70
2018-01-08T21:59:54.261Z,6.80
2018-01-08T22:02:21.891Z,6.70
2018-01-08T22:04:49.390Z,6.80
2018-01-08T22:07:17.656Z,6.90
2018-01-08T22:09:45.156Z,6.80
2018-01-08T22:12:12.651Z,6.90
2018-01-08T22:14:40.155Z,6.90
2018-01-08T22:17:07.656Z,6.90
2018-01-08T22:19:35.170Z,6.90
2018-01-08T22:22:02.689Z,7.00
2018-01-08T22:24:30.191Z,7.00
2018-01-08T22:26:57.735Z,7.00
2018-01-08T22:29:26.000Z,7.00
2018-01-08T22:31:54.267Z,7.10
2018-01-08T22:34:21.783Z,7.10
2018-01-08T22:36:49.284Z,7.00
2018-01-08T22:39:16.786Z,7.10
2018-01-08T22:41:44.310Z,7.10
2018-01-08T22:44:12.583Z,7.20
2018-01-08T22:46:40.083Z,7.10
2018-01-08T22:49:07.619Z,7.20
2018-01-08T22:51:35.884Z,7.20
2018-01-08T22:54:04.166Z,7.20
2018-01-08T22:56:32.433Z,7.20
2018-01-08T22:59:00.722Z,7.30
2018-01-08T23:01:29.023Z,7.30
2018-01-08T23:03:56.528Z,7.30
2018-01-08T23:06:24.039Z,7.30
2018-01-08T23:08:51.539Z,7.30
2018-01-08T23:11:19.039Z,7.30
2018-01-08T23:13:46.538Z,7.30
2018-01-08T23:16:14.057Z,7.30
2018-01-08T23:18:41.566Z,7.30
2018-01-08T23:21:09.066Z,7.20
2018-01-08T23:23:37.339Z,7.30
2018-01-08T23:26:05.612Z,7.30
2018-01-08T23:28:33.891Z,7.30
2018-01-08T23:31:02.155Z,7.20
2018-01-08T23:33:29.663Z,7.20
2018-01-08T23:35:57.182Z,7.20
2018-01-08T23:38:25.474Z,7.20
2018-01-08T23:40:52.971Z,7.20
2018-01-08T23:43:20.518Z,7.20
2018-01-08T23:45:48.012Z,7.20
2018-01-08T23:48:15.523Z,7.20
2018-01-08T23:50:43.029Z,7.20
2018-01-08T23:53:10.537Z,7.20
2018-01-08T23:55:38.062Z,7.20
2018-01-08T23:58:06.331Z,7.20
